sensor_id;sensor_type;location;lat;lon;timestamp;pressure;altitude;pressure_sealevel;temperature;humidity
54882;BME280;40775;51.448;4.742;2023-04-30T00:01:00;102235.41;;;9.69;100.00
54882;BME280;40775;51.448;4.742;2023-04-30T00:03:27;102229.97;;;9.65;100.00
54882;BME280;40775;51.448;4.742;2023-04-30T00:05:56;102225.47;;;9.62;100.00
54882;BME280;40775;51.448;4.742;2023-04-30T00:08:23;102224.25;;;9.55;100.00
54882;BME280;40775;51.448;4.742;2023-04-30T00:10:50;102231.03;;;9.50;100.00
54882;BME280;40775;51.448;4.742;2023-04-30T00:13:17;102230.88;;;9.47;100.00
54882;BME280;40775;51.448;4.742;2023-04-30T00:15:44;102238.75;;;9.47;100.00
54882;BME280;40775;51.448;4.742;2023-04-30T00:18:12;102231.78;;;9.48;100.00
54882;BME280;40775;51.448;4.742;2023-04-30T00:20:39;102230.69;;;9.43;100.00
54882;BME280;40775;51.448;4.742;2023-04-30T00:23:06;102239.50;;;9.45;100.00
54882;BME280;40775;51.448;4.742;2023-04-30T00:25:34;102234.59;;;9.33;100.00
54882;BME280;40775;51.448;4.742;2023-04-30T00:28:01;102234.75;;;9.36;100.00
54882;BME280;40775;51.448;4.742;2023-04-30T00:30:28;102237.44;;;9.38;100.00
54882;BME280;40775;51.448;4.742;2023-04-30T00:32:55;102236.53;;;9.37;100.00
54882;BME280;40775;51.448;4.742;2023-04-30T00:35:22;102231.78;;;9.30;100.00
54882;BME280;40775;51.448;4.742;2023-04-30T00:37:49;102233.84;;;9.36;100.00
54882;BME280;40775;51.448;4.742;2023-04-30T00:40:16;102231.97;;;9.33;100.00
54882;BME280;40775;51.448;4.742;2023-04-30T00:42:43;102237.78;;;9.27;100.00
54882;BME280;40775;51.448;4.742;2023-04-30T00:45:10;102239.66;;;9.30;100.00
54882;BME280;40775;51.448;4.742;2023-04-30T00:47:37;102228.97;;;9.25;100.00
54882;BME280;40775;51.448;4.742;2023-04-30T00:50:05;102231.97;;;9.15;100.00
54882;BME280;40775;51.448;4.742;2023-04-30T00:52:32;102230.88;;;9.10;100.00
54882;BME280;40775;51.448;4.742;2023-04-30T00:54:59;102234.59;;;8.97;100.00
54882;BME280;40775;51.448;4.742;2023-04-30T00:57:27;102235.72;;;8.85;100.00
54882;BME280;40775;51.448;4.742;2023-04-30T00:59:55;102231.16;;;8.81;100.00
54882;BME280;40775;51.448;4.742;2023-04-30T01:02:22;102229.72;;;8.70;100.00
54882;BME280;40775;51.448;4.742;2023-04-30T01:04:51;102238.69;;;8.57;100.00
54882;BME280;40775;51.448;4.742;2023-04-30T01:07:18;102233.81;;;8.64;100.00
54882;BME280;40775;51.448;4.742;2023-04-30T01:09:45;102233.00;;;8.65;100.00
54882;BME280;40775;51.448;4.742;2023-04-30T01:16:10;102244.00;;;8.76;100.00
54882;BME280;40775;51.448;4.742;2023-04-30T01:18:55;102239.03;;;8.81;100.00
54882;BME280;40775;51.448;4.742;2023-04-30T01:21:23;102241.22;;;8.73;100.00
54882;BME280;40775;51.448;4.742;2023-04-30T01:29:34;102238.84;;;8.60;100.00
54882;BME280;40775;51.448;4.742;2023-04-30T01:32:02;102245.56;;;8.55;100.00
54882;BME280;40775;51.448;4.742;2023-04-30T01:34:29;102240.63;;;8.61;100.00
54882;BME280;40775;51.448;4.742;2023-04-30T01:37:28;102233.13;;;8.51;100.00
54882;BME280;40775;51.448;4.742;2023-04-30T01:46:03;102237.81;;;8.40;100.00
54882;BME280;40775;51.448;4.742;2023-04-30T01:51:41;102242.63;;;8.32;100.00
54882;BME280;40775;51.448;4.742;2023-04-30T01:57:17;102243.22;;;8.27;100.00
54882;BME280;40775;51.448;4.742;2023-04-30T01:59:47;102255.31;;;8.25;100.00
54882;BME280;40775;51.448;4.742;2023-04-30T02:02:14;102259.56;;;8.23;100.00
54882;BME280;40775;51.448;4.742;2023-04-30T02:04:41;102243.94;;;8.24;100.00
54882;BME280;40775;51.448;4.742;2023-04-30T02:07:08;102252.44;;;8.20;100.00
54882;BME280;40775;51.448;4.742;2023-04-30T02:09:35;102255.56;;;8.13;100.00
54882;BME280;40775;51.448;4.742;2023-04-30T02:12:02;102253.16;;;8.18;100.00
54882;BME280;40775;51.448;4.742;2023-04-30T02:14:30;102258.66;;;8.22;100.00
54882;BME280;40775;51.448;4.742;2023-04-30T02:16:57;102254.50;;;8.26;100.00
54882;BME280;40775;51.448;4.742;2023-04-30T02:19:25;102252.19;;;8.32;100.00
54882;BME280;40775;51.448;4.742;2023-04-30T02:21:51;102257.44;;;8.16;100.00
54882;BME280;40775;51.448;4.742;2023-04-30T02:24:18;102265.19;;;8.14;100.00
54882;BME280;40775;51.448;4.742;2023-04-30T02:26:46;102255.16;;;8.05;100.00
54882;BME280;40775;51.448;4.742;2023-04-30T02:29:13;102255.06;;;8.04;100.00
54882;BME280;40775;51.448;4.742;2023-04-30T02:31:40;102258.50;;;8.03;100.00
54882;BME280;40775;51.448;4.742;2023-04-30T02:34:07;102254.91;;;8.01;100.00
54882;BME280;40775;51.448;4.742;2023-04-30T02:36:34;102251.97;;;8.11;100.00
54882;BME280;40775;51.448;4.742;2023-04-30T02:39:02;102257.28;;;7.96;100.00
54882;BME280;40775;51.448;4.742;2023-04-30T02:41:29;102259.16;;;7.99;100.00
54882;BME280;40775;51.448;4.742;2023-04-30T02:43:56;102260.97;;;8.00;100.00
54882;BME280;40775;51.448;4.742;2023-04-30T02:46:23;102256.56;;;7.99;100.00
54882;BME280;40775;51.448;4.742;2023-04-30T02:48:50;102261.44;;;7.93;100.00
54882;BME280;40775;51.448;4.742;2023-04-30T02:51:17;102261.09;;;7.87;100.00
54882;BME280;40775;51.448;4.742;2023-04-30T02:53:44;102259.31;;;7.86;100.00
54882;BME280;40775;51.448;4.742;2023-04-30T02:56:11;102257.34;;;7.82;100.00
54882;BME280;40775;51.448;4.742;2023-04-30T02:58:38;102266.19;;;7.84;100.00
54882;BME280;40775;51.448;4.742;2023-04-30T03:01:05;102264.94;;;7.77;100.00
54882;BME280;40775;51.448;4.742;2023-04-30T03:03:32;102260.47;;;7.74;100.00
54882;BME280;40775;51.448;4.742;2023-04-30T03:05:59;102262.19;;;7.74;100.00
54882;BME280;40775;51.448;4.742;2023-04-30T03:08:26;102269.28;;;7.77;100.00
54882;BME280;40775;51.448;4.742;2023-04-30T03:10:54;102265.75;;;7.76;100.00
54882;BME280;40775;51.448;4.742;2023-04-30T03:13:21;102265.84;;;7.78;100.00
54882;BME280;40775;51.448;4.742;2023-04-30T03:15:48;102268.13;;;7.71;100.00
54882;BME280;40775;51.448;4.742;2023-04-30T03:18:15;102271.25;;;7.81;100.00
54882;BME280;40775;51.448;4.742;2023-04-30T03:20:42;102267.81;;;7.82;100.00
54882;BME280;40775;51.448;4.742;2023-04-30T03:23:09;102269.44;;;7.80;100.00
54882;BME280;40775;51.448;4.742;2023-04-30T03:25:36;102270.75;;;7.71;100.00
54882;BME280;40775;51.448;4.742;2023-04-30T03:28:03;102262.63;;;7.67;100.00
54882;BME280;40775;51.448;4.742;2023-04-30T03:30:30;102261.56;;;7.63;100.00
54882;BME280;40775;51.448;4.742;2023-04-30T03:32:57;102266.56;;;7.59;100.00
54882;BME280;40775;51.448;4.742;2023-04-30T03:35:24;102261.25;;;7.57;100.00
54882;BME280;40775;51.448;4.742;2023-04-30T03:37:51;102257.66;;;7.55;100.00
54882;BME280;40775;51.448;4.742;2023-04-30T03:40:19;102264.34;;;7.50;100.00
54882;BME280;40775;51.448;4.742;2023-04-30T03:42:46;102268.41;;;7.45;100.00
54882;BME280;40775;51.448;4.742;2023-04-30T03:45:15;102275.28;;;7.43;100.00
54882;BME280;40775;51.448;4.742;2023-04-30T03:47:43;102272.22;;;7.35;100.00
54882;BME280;40775;51.448;4.742;2023-04-30T03:50:10;102269.97;;;7.27;100.00
54882;BME280;40775;51.448;4.742;2023-04-30T03:52:37;102275.22;;;7.27;100.00
54882;BME280;40775;51.448;4.742;2023-04-30T03:55:08;102277.00;;;7.28;100.00
54882;BME280;40775;51.448;4.742;2023-04-30T03:57:39;102278.81;;;7.29;100.00
54882;BME280;40775;51.448;4.742;2023-04-30T04:00:09;102281.59;;;7.32;100.00
54882;BME280;40775;51.448;4.742;2023-04-30T04:02:38;102273.28;;;7.39;100.00
54882;BME280;40775;51.448;4.742;2023-04-30T04:05:05;102278.78;;;7.43;100.00
54882;BME280;40775;51.448;4.742;2023-04-30T04:07:47;102273.91;;;7.35;100.00
54882;BME280;40775;51.448;4.742;2023-04-30T04:10:14;102274.28;;;7.41;100.00
54882;BME280;40775;51.448;4.742;2023-04-30T04:12:42;102270.84;;;7.42;100.00
54882;BME280;40775;51.448;4.742;2023-04-30T04:15:09;102271.56;;;7.39;100.00
54882;BME280;40775;51.448;4.742;2023-04-30T04:17:36;102268.03;;;7.39;100.00
54882;BME280;40775;51.448;4.742;2023-04-30T04:20:04;102261.09;;;7.39;100.00
54882;BME280;40775;51.448;4.742;2023-04-30T04:22:32;102269.00;;;7.25;100.00
54882;BME280;40775;51.448;4.742;2023-04-30T04:24:59;102267.63;;;7.31;100.00
54882;BME280;40775;51.448;4.742;2023-04-30T04:27:26;102278.06;;;7.31;100.00
54882;BME280;40775;51.448;4.742;2023-04-30T04:29:53;102276.53;;;7.35;100.00
54882;BME280;40775;51.448;4.742;2023-04-30T04:32:21;102280.59;;;7.30;100.00
54882;BME280;40775;51.448;4.742;2023-04-30T04:34:48;102282.41;;;7.31;100.00
54882;BME280;40775;51.448;4.742;2023-04-30T04:37:15;102277.66;;;7.24;100.00
54882;BME280;40775;51.448;4.742;2023-04-30T04:39:43;102275.69;;;7.20;100.00
54882;BME280;40775;51.448;4.742;2023-04-30T04:42:11;102278.13;;;7.17;100.00
54882;BME280;40775;51.448;4.742;2023-04-30T04:44:38;102281.66;;;7.02;100.00
54882;BME280;40775;51.448;4.742;2023-04-30T04:47:05;102289.13;;;6.96;100.00
54882;BME280;40775;51.448;4.742;2023-04-30T04:49:32;102293.44;;;6.96;100.00
54882;BME280;40775;51.448;4.742;2023-04-30T04:51:59;102287.69;;;7.01;100.00
54882;BME280;40775;51.448;4.742;2023-04-30T04:54:27;102291.34;;;7.05;100.00
54882;BME280;40775;51.448;4.742;2023-04-30T04:56:54;102287.03;;;7.05;100.00
54882;BME280;40775;51.448;4.742;2023-04-30T04:59:21;102289.81;;;7.08;100.00
54882;BME280;40775;51.448;4.742;2023-04-30T05:01:48;102292.00;;;7.16;100.00
54882;BME280;40775;51.448;4.742;2023-04-30T05:04:15;102284.69;;;7.25;100.00
54882;BME280;40775;51.448;4.742;2023-04-30T05:06:42;102293.50;;;7.27;100.00
54882;BME280;40775;51.448;4.742;2023-04-30T05:09:10;102294.81;;;7.35;100.00
54882;BME280;40775;51.448;4.742;2023-04-30T05:11:37;102291.94;;;7.45;100.00
54882;BME280;40775;51.448;4.742;2023-04-30T05:14:04;102290.28;;;7.47;100.00
54882;BME280;40775;51.448;4.742;2023-04-30T05:16:31;102290.72;;;7.55;100.00
54882;BME280;40775;51.448;4.742;2023-04-30T05:18:58;102295.47;;;7.62;100.00
54882;BME280;40775;51.448;4.742;2023-04-30T05:21:25;102297.78;;;7.72;100.00
54882;BME280;40775;51.448;4.742;2023-04-30T05:23:55;102291.81;;;7.74;100.00
54882;BME280;40775;51.448;4.742;2023-04-30T05:26:22;102294.38;;;7.89;100.00
54882;BME280;40775;51.448;4.742;2023-04-30T05:28:52;102289.22;;;7.91;100.00
54882;BME280;40775;51.448;4.742;2023-04-30T05:31:19;102288.25;;;8.05;100.00
54882;BME280;40775;51.448;4.742;2023-04-30T05:33:47;102288.50;;;8.26;100.00
54882;BME280;40775;51.448;4.742;2023-04-30T05:36:14;102296.44;;;8.27;100.00
54882;BME280;40775;51.448;4.742;2023-04-30T05:38:41;102296.03;;;8.36;100.00
54882;BME280;40775;51.448;4.742;2023-04-30T05:41:11;102295.47;;;8.42;100.00
54882;BME280;40775;51.448;4.742;2023-04-30T05:43:38;102287.50;;;8.56;100.00
54882;BME280;40775;51.448;4.742;2023-04-30T05:46:05;102290.53;;;8.64;100.00
54882;BME280;40775;51.448;4.742;2023-04-30T05:48:33;102302.69;;;8.80;100.00
54882;BME280;40775;51.448;4.742;2023-04-30T05:51:00;102289.16;;;8.88;100.00
54882;BME280;40775;51.448;4.742;2023-04-30T05:53:27;102288.09;;;9.03;100.00
54882;BME280;40775;51.448;4.742;2023-04-30T05:55:54;102292.84;;;9.10;100.00
54882;BME280;40775;51.448;4.742;2023-04-30T05:58:21;102301.00;;;9.16;100.00
54882;BME280;40775;51.448;4.742;2023-04-30T06:00:49;102292.81;;;9.27;100.00
54882;BME280;40775;51.448;4.742;2023-04-30T06:03:18;102291.44;;;9.34;100.00
54882;BME280;40775;51.448;4.742;2023-04-30T06:05:46;102293.78;;;9.47;100.00
54882;BME280;40775;51.448;4.742;2023-04-30T06:08:13;102294.22;;;9.56;100.00
54882;BME280;40775;51.448;4.742;2023-04-30T06:10:40;102290.19;;;9.63;100.00
54882;BME280;40775;51.448;4.742;2023-04-30T06:13:08;102299.53;;;9.76;100.00
54882;BME280;40775;51.448;4.742;2023-04-30T06:15:35;102296.41;;;9.84;100.00
54882;BME280;40775;51.448;4.742;2023-04-30T06:18:02;102290.59;;;9.90;100.00
54882;BME280;40775;51.448;4.742;2023-04-30T06:20:29;102287.63;;;10.02;100.00
54882;BME280;40775;51.448;4.742;2023-04-30T06:22:56;102290.56;;;10.09;100.00
54882;BME280;40775;51.448;4.742;2023-04-30T06:25:23;102288.38;;;10.18;100.00
54882;BME280;40775;51.448;4.742;2023-04-30T06:27:50;102283.63;;;10.29;100.00
54882;BME280;40775;51.448;4.742;2023-04-30T06:30:19;102283.97;;;10.37;100.00
54882;BME280;40775;51.448;4.742;2023-04-30T06:32:46;102283.81;;;10.53;100.00
54882;BME280;40775;51.448;4.742;2023-04-30T06:35:14;102289.53;;;10.64;100.00
54882;BME280;40775;51.448;4.742;2023-04-30T06:37:41;102291.44;;;10.68;100.00
54882;BME280;40775;51.448;4.742;2023-04-30T06:40:08;102280.00;;;10.87;100.00
54882;BME280;40775;51.448;4.742;2023-04-30T06:42:35;102285.97;;;11.03;100.00
54882;BME280;40775;51.448;4.742;2023-04-30T06:45:06;102291.66;;;11.14;100.00
54882;BME280;40775;51.448;4.742;2023-04-30T06:47:34;102295.50;;;11.22;100.00
54882;BME280;40775;51.448;4.742;2023-04-30T06:50:03;102288.78;;;11.29;100.00
54882;BME280;40775;51.448;4.742;2023-04-30T06:52:30;102287.09;;;11.31;100.00
54882;BME280;40775;51.448;4.742;2023-04-30T06:54:58;102295.47;;;11.43;100.00
54882;BME280;40775;51.448;4.742;2023-04-30T06:57:25;102294.00;;;11.72;100.00
54882;BME280;40775;51.448;4.742;2023-04-30T06:59:53;102292.00;;;11.87;100.00
54882;BME280;40775;51.448;4.742;2023-04-30T07:02:21;102295.06;;;11.99;100.00
54882;BME280;40775;51.448;4.742;2023-04-30T07:04:48;102280.72;;;12.14;100.00
54882;BME280;40775;51.448;4.742;2023-04-30T07:07:15;102275.66;;;12.20;100.00
54882;BME280;40775;51.448;4.742;2023-04-30T07:09:42;102269.66;;;12.24;100.00
54882;BME280;40775;51.448;4.742;2023-04-30T07:12:09;102272.34;;;12.49;100.00
54882;BME280;40775;51.448;4.742;2023-04-30T07:14:38;102272.88;;;12.39;100.00
54882;BME280;40775;51.448;4.742;2023-04-30T07:17:05;102270.56;;;12.74;100.00
54882;BME280;40775;51.448;4.742;2023-04-30T07:19:32;102263.50;;;12.73;100.00
54882;BME280;40775;51.448;4.742;2023-04-30T07:21:59;102262.75;;;12.77;100.00
54882;BME280;40775;51.448;4.742;2023-04-30T07:24:26;102253.25;;;12.82;100.00
54882;BME280;40775;51.448;4.742;2023-04-30T07:26:53;102267.84;;;12.97;100.00
54882;BME280;40775;51.448;4.742;2023-04-30T07:29:20;102259.06;;;12.97;100.00
54882;BME280;40775;51.448;4.742;2023-04-30T07:31:48;102259.19;;;13.02;100.00
54882;BME280;40775;51.448;4.742;2023-04-30T07:34:15;102264.78;;;13.38;100.00
54882;BME280;40775;51.448;4.742;2023-04-30T07:36:42;102257.19;;;13.47;100.00
54882;BME280;40775;51.448;4.742;2023-04-30T07:39:09;102256.16;;;13.70;100.00
54882;BME280;40775;51.448;4.742;2023-04-30T07:41:37;102244.16;;;13.81;100.00
54882;BME280;40775;51.448;4.742;2023-04-30T07:44:05;102250.97;;;13.73;100.00
54882;BME280;40775;51.448;4.742;2023-04-30T07:46:32;102237.78;;;14.05;100.00
54882;BME280;40775;51.448;4.742;2023-04-30T07:48:59;102244.44;;;14.22;100.00
54882;BME280;40775;51.448;4.742;2023-04-30T07:51:26;102236.97;;;14.39;100.00
54882;BME280;40775;51.448;4.742;2023-04-30T07:53:53;102237.63;;;14.30;100.00
54882;BME280;40775;51.448;4.742;2023-04-30T07:56:20;102237.31;;;14.51;100.00
54882;BME280;40775;51.448;4.742;2023-04-30T07:58:47;102239.97;;;14.51;100.00
54882;BME280;40775;51.448;4.742;2023-04-30T08:01:15;102251.50;;;14.53;100.00
54882;BME280;40775;51.448;4.742;2023-04-30T08:03:42;102242.69;;;14.87;100.00
54882;BME280;40775;51.448;4.742;2023-04-30T08:06:09;102251.72;;;14.97;100.00
54882;BME280;40775;51.448;4.742;2023-04-30T08:08:36;102247.47;;;15.03;100.00
54882;BME280;40775;51.448;4.742;2023-04-30T08:11:04;102245.72;;;15.04;100.00
54882;BME280;40775;51.448;4.742;2023-04-30T08:13:31;102243.59;;;15.25;100.00
54882;BME280;40775;51.448;4.742;2023-04-30T08:15:58;102236.19;;;15.48;100.00
54882;BME280;40775;51.448;4.742;2023-04-30T08:18:25;102237.53;;;15.67;100.00
54882;BME280;40775;51.448;4.742;2023-04-30T08:20:52;102234.19;;;15.75;100.00
54882;BME280;40775;51.448;4.742;2023-04-30T08:23:19;102234.78;;;15.62;100.00
54882;BME280;40775;51.448;4.742;2023-04-30T08:25:46;102233.31;;;15.76;100.00
54882;BME280;40775;51.448;4.742;2023-04-30T08:28:13;102227.31;;;15.85;100.00
54882;BME280;40775;51.448;4.742;2023-04-30T08:30:40;102233.09;;;16.08;100.00
54882;BME280;40775;51.448;4.742;2023-04-30T08:33:07;102231.69;;;16.25;100.00
54882;BME280;40775;51.448;4.742;2023-04-30T08:35:34;102230.13;;;16.38;100.00
54882;BME280;40775;51.448;4.742;2023-04-30T08:38:01;102225.72;;;16.38;100.00
54882;BME280;40775;51.448;4.742;2023-04-30T08:40:29;102227.91;;;16.61;100.00
54882;BME280;40775;51.448;4.742;2023-04-30T08:43:17;102223.13;;;16.90;100.00
54882;BME280;40775;51.448;4.742;2023-04-30T08:45:46;102223.19;;;16.93;100.00
54882;BME280;40775;51.448;4.742;2023-04-30T08:48:15;102216.94;;;16.89;100.00
54882;BME280;40775;51.448;4.742;2023-04-30T08:50:42;102212.91;;;17.14;100.00
54882;BME280;40775;51.448;4.742;2023-04-30T08:53:10;102209.34;;;17.12;100.00
54882;BME280;40775;51.448;4.742;2023-04-30T08:55:39;102214.19;;;17.42;100.00
54882;BME280;40775;51.448;4.742;2023-04-30T08:58:08;102216.09;;;17.52;100.00
54882;BME280;40775;51.448;4.742;2023-04-30T09:00:38;102216.38;;;17.69;100.00
54882;BME280;40775;51.448;4.742;2023-04-30T09:03:06;102212.59;;;17.53;100.00
54882;BME280;40775;51.448;4.742;2023-04-30T09:05:35;102213.63;;;17.65;100.00
54882;BME280;40775;51.448;4.742;2023-04-30T09:08:03;102204.56;;;17.49;100.00
54882;BME280;40775;51.448;4.742;2023-04-30T09:10:34;102198.75;;;17.76;100.00
54882;BME280;40775;51.448;4.742;2023-04-30T09:13:08;102193.72;;;18.00;100.00
54882;BME280;40775;51.448;4.742;2023-04-30T09:15:37;102197.47;;;18.16;100.00
54882;BME280;40775;51.448;4.742;2023-04-30T09:18:16;102198.41;;;18.24;100.00
54882;BME280;40775;51.448;4.742;2023-04-30T09:21:00;102195.84;;;18.33;100.00
54882;BME280;40775;51.448;4.742;2023-04-30T09:23:29;102191.50;;;18.40;100.00
54882;BME280;40775;51.448;4.742;2023-04-30T09:25:56;102199.78;;;18.67;100.00
54882;BME280;40775;51.448;4.742;2023-04-30T09:28:23;102194.50;;;18.75;100.00
54882;BME280;40775;51.448;4.742;2023-04-30T09:30:52;102184.69;;;18.65;100.00
54882;BME280;40775;51.448;4.742;2023-04-30T09:33:19;102186.53;;;18.76;100.00
54882;BME280;40775;51.448;4.742;2023-04-30T09:35:46;102179.41;;;18.74;100.00
54882;BME280;40775;51.448;4.742;2023-04-30T09:38:32;102192.06;;;19.04;100.00
54882;BME280;40775;51.448;4.742;2023-04-30T09:41:00;102179.59;;;18.94;100.00
54882;BME280;40775;51.448;4.742;2023-04-30T09:43:30;102180.50;;;18.99;100.00
54882;BME280;40775;51.448;4.742;2023-04-30T09:45:58;102181.44;;;19.07;100.00
54882;BME280;40775;51.448;4.742;2023-04-30T09:48:27;102177.91;;;19.11;100.00
54882;BME280;40775;51.448;4.742;2023-04-30T09:50:54;102178.06;;;19.37;100.00
54882;BME280;40775;51.448;4.742;2023-04-30T09:53:21;102174.47;;;19.26;100.00
54882;BME280;40775;51.448;4.742;2023-04-30T09:55:50;102171.09;;;19.54;100.00
54882;BME280;40775;51.448;4.742;2023-04-30T09:58:18;102171.94;;;19.49;100.00
54882;BME280;40775;51.448;4.742;2023-04-30T10:00:46;102170.16;;;19.51;100.00
54882;BME280;40775;51.448;4.742;2023-04-30T10:03:16;102173.78;;;19.65;100.00
54882;BME280;40775;51.448;4.742;2023-04-30T10:05:47;102167.47;;;19.48;100.00
54882;BME280;40775;51.448;4.742;2023-04-30T10:08:31;102159.50;;;19.51;100.00
54882;BME280;40775;51.448;4.742;2023-04-30T10:11:05;102166.69;;;19.64;100.00
54882;BME280;40775;51.448;4.742;2023-04-30T10:13:53;102161.38;;;19.70;100.00
54882;BME280;40775;51.448;4.742;2023-04-30T10:16:50;102158.66;;;19.56;100.00
54882;BME280;40775;51.448;4.742;2023-04-30T10:19:39;102155.16;;;19.68;100.00
54882;BME280;40775;51.448;4.742;2023-04-30T10:22:08;102158.75;;;19.78;100.00
54882;BME280;40775;51.448;4.742;2023-04-30T10:24:35;102164.16;;;20.03;100.00
54882;BME280;40775;51.448;4.742;2023-04-30T10:27:03;102153.44;;;19.91;100.00
54882;BME280;40775;51.448;4.742;2023-04-30T10:29:30;102156.16;;;20.06;100.00
54882;BME280;40775;51.448;4.742;2023-04-30T10:31:58;102153.44;;;19.81;100.00
54882;BME280;40775;51.448;4.742;2023-04-30T10:37:09;102150.88;;;20.38;100.00
54882;BME280;40775;51.448;4.742;2023-04-30T10:39:39;102146.44;;;20.33;100.00
54882;BME280;40775;51.448;4.742;2023-04-30T10:42:08;102140.19;;;20.22;100.00
54882;BME280;40775;51.448;4.742;2023-04-30T10:44:36;102141.97;;;20.17;100.00
54882;BME280;40775;51.448;4.742;2023-04-30T10:47:06;102138.44;;;20.73;100.00
54882;BME280;40775;51.448;4.742;2023-04-30T10:49:33;102130.44;;;20.48;100.00
54882;BME280;40775;51.448;4.742;2023-04-30T10:52:04;102126.03;;;20.55;100.00
54882;BME280;40775;51.448;4.742;2023-04-30T10:54:34;102120.66;;;20.72;100.00
54882;BME280;40775;51.448;4.742;2023-04-30T10:57:11;102122.47;;;20.59;100.00
54882;BME280;40775;51.448;4.742;2023-04-30T10:59:51;102114.44;;;20.54;100.00
54882;BME280;40775;51.448;4.742;2023-04-30T11:02:19;102098.34;;;21.03;100.00
54882;BME280;40775;51.448;4.742;2023-04-30T11:05:19;102102.84;;;20.92;100.00
54882;BME280;40775;51.448;4.742;2023-04-30T11:07:56;102100.13;;;20.98;100.00
54882;BME280;40775;51.448;4.742;2023-04-30T11:10:27;102107.25;;;20.99;100.00
54882;BME280;40775;51.448;4.742;2023-04-30T11:13:01;102096.56;;;21.11;100.00
54882;BME280;40775;51.448;4.742;2023-04-30T11:15:44;102089.34;;;21.45;100.00
54882;BME280;40775;51.448;4.742;2023-04-30T11:18:12;102094.75;;;21.07;100.00
54882;BME280;40775;51.448;4.742;2023-04-30T11:20:43;102084.03;;;21.32;100.00
54882;BME280;40775;51.448;4.742;2023-04-30T11:23:16;102088.53;;;21.11;100.00
54882;BME280;40775;51.448;4.742;2023-04-30T11:26:03;102076.00;;;21.42;100.00
54882;BME280;40775;51.448;4.742;2023-04-30T11:28:33;102072.44;;;21.42;100.00
54882;BME280;40775;51.448;4.742;2023-04-30T11:31:03;102074.13;;;21.55;100.00
54882;BME280;40775;51.448;4.742;2023-04-30T11:33:32;102080.38;;;21.51;100.00
54882;BME280;40775;51.448;4.742;2023-04-30T11:36:00;102064.44;;;21.39;100.00
54882;BME280;40775;51.448;4.742;2023-04-30T11:38:33;102057.16;;;21.59;100.00
54882;BME280;40775;51.448;4.742;2023-04-30T11:41:04;102059.97;;;21.39;100.00
54882;BME280;40775;51.448;4.742;2023-04-30T11:43:33;102053.50;;;21.78;100.00
54882;BME280;40775;51.448;4.742;2023-04-30T11:46:06;102053.47;;;21.80;100.00
54882;BME280;40775;51.448;4.742;2023-04-30T11:48:39;102060.59;;;21.82;100.00
54882;BME280;40775;51.448;4.742;2023-04-30T11:51:20;102052.59;;;21.81;100.00
54882;BME280;40775;51.448;4.742;2023-04-30T11:53:50;102044.56;;;21.79;100.00
54882;BME280;40775;51.448;4.742;2023-04-30T11:56:22;102046.44;;;21.68;100.00
54882;BME280;40775;51.448;4.742;2023-04-30T11:58:53;102042.06;;;21.55;100.00
54882;BME280;40775;51.448;4.742;2023-04-30T12:01:26;102041.97;;;21.70;100.00
54882;BME280;40775;51.448;4.742;2023-04-30T12:03:55;102040.97;;;21.85;100.00
54882;BME280;40775;51.448;4.742;2023-04-30T12:06:25;102036.59;;;21.75;100.00
54882;BME280;40775;51.448;4.742;2023-04-30T12:08:55;102035.47;;;22.08;100.00
54882;BME280;40775;51.448;4.742;2023-04-30T12:11:27;102039.06;;;22.05;98.75
54882;BME280;40775;51.448;4.742;2023-04-30T12:14:15;102023.72;;;22.29;100.00
54882;BME280;40775;51.448;4.742;2023-04-30T12:16:48;102024.63;;;22.26;98.46
54882;BME280;40775;51.448;4.742;2023-04-30T12:19:21;102024.84;;;21.97;94.45
54882;BME280;40775;51.448;4.742;2023-04-30T12:21:51;102032.81;;;22.06;95.32
54882;BME280;40775;51.448;4.742;2023-04-30T12:24:20;102025.78;;;21.87;94.79
54882;BME280;40775;51.448;4.742;2023-04-30T12:26:52;102016.91;;;21.85;95.01
54882;BME280;40775;51.448;4.742;2023-04-30T12:29:21;102025.78;;;21.88;93.64
54882;BME280;40775;51.448;4.742;2023-04-30T12:31:48;102022.88;;;22.22;94.76
54882;BME280;40775;51.448;4.742;2023-04-30T12:34:17;102017.25;;;22.51;95.71
54882;BME280;40775;51.448;4.742;2023-04-30T12:36:44;102009.22;;;22.52;96.25
54882;BME280;40775;51.448;4.742;2023-04-30T12:39:14;102017.13;;;22.62;95.98
54882;BME280;40775;51.448;4.742;2023-04-30T12:41:46;102002.63;;;22.84;95.08
54882;BME280;40775;51.448;4.742;2023-04-30T12:44:23;101993.72;;;22.80;93.61
54882;BME280;40775;51.448;4.742;2023-04-30T12:46:52;101997.16;;;22.93;91.97
54882;BME280;40775;51.448;4.742;2023-04-30T12:49:29;101995.44;;;22.88;88.43
54882;BME280;40775;51.448;4.742;2023-04-30T12:52:10;101997.38;;;22.75;94.32
54882;BME280;40775;51.448;4.742;2023-04-30T12:54:39;101997.53;;;22.58;94.21
54882;BME280;40775;51.448;4.742;2023-04-30T12:57:09;101990.31;;;22.65;96.13
54882;BME280;40775;51.448;4.742;2023-04-30T12:59:58;101993.97;;;22.58;98.22
54882;BME280;40775;51.448;4.742;2023-04-30T13:02:29;101993.09;;;22.57;96.37
54882;BME280;40775;51.448;4.742;2023-04-30T13:04:59;101983.16;;;22.67;94.05
54882;BME280;40775;51.448;4.742;2023-04-30T13:07:34;101972.34;;;22.76;95.95
54882;BME280;40775;51.448;4.742;2023-04-30T13:10:02;101976.28;;;22.41;91.76
54882;BME280;40775;51.448;4.742;2023-04-30T13:12:29;101974.41;;;22.52;94.20
54882;BME280;40775;51.448;4.742;2023-04-30T13:14:58;101974.03;;;22.86;96.49
54882;BME280;40775;51.448;4.742;2023-04-30T13:17:25;101961.38;;;22.97;98.57
54882;BME280;40775;51.448;4.742;2023-04-30T13:19:52;101959.41;;;23.11;93.48